Time;durP1;ratioP1;P1;durP2;ratioP2;P2;SDS_P1;SDS_P2;PMS_P1;PMS_P2;Temp;Humidity;BMP_temperature;BMP_pressure;BME280_temperature;BME280_humidity;BME280_pressure;Samples;Min_cycle;Max_cycle;Signal;HPM_P1;HPM_P2
2021/09/14 00:01:52;;;;;;;1999.90;999.90;;;;;;;13.31;50.21;101435.56;4984255;28;97909;-75
2021/09/14 00:04:22;;;;;;;1999.90;999.90;;;;;;;13.67;50.05;101431.84;4973561;28;96957;-76
2021/09/14 00:06:50;;;;;;;1999.90;999.90;;;;;;;13.44;50.43;101433.16;4984790;28;97355;-76
2021/09/14 00:09:18;;;;;;;1999.90;999.90;;;;;;;13.36;50.40;101436.56;4983144;28;97944;-76
2021/09/14 00:11:46;;;;;;;1999.90;999.90;;;;;;;13.36;50.38;101428.53;4984674;28;99095;-75
2021/09/14 00:14:14;;;;;;;1999.90;999.90;;;;;;;13.66;50.03;101432.69;4982439;28;97640;-75
2021/09/14 00:16:43;;;;;;;1999.90;999.90;;;;;;;13.39;50.71;101434.84;4982205;28;97402;-75
2021/09/14 00:19:11;;;;;;;1999.90;999.90;;;;;;;13.31;50.64;101436.47;4966361;28;100311;-75
2021/09/14 00:21:41;;;;;;;1999.90;999.90;;;;;;;13.62;50.49;101436.16;4983424;28;100225;-75
2021/09/14 00:24:08;;;;;;;1999.90;999.90;;;;;;;13.37;50.85;101428.56;4984356;28;96843;-76
2021/09/14 00:26:36;;;;;;;1999.90;999.90;;;;;;;13.28;50.82;101425.69;4985453;28;96956;-76
2021/09/14 00:29:04;;;;;;;1999.90;999.90;;;;;;;13.24;51.05;101425.63;4975855;28;99612;-76
2021/09/14 00:31:33;;;;;;;1999.90;999.90;;;;;;;13.20;50.98;101429.09;4968077;28;99452;-76
2021/09/14 00:34:01;;;;;;;1999.90;999.90;;;;;;;13.16;51.03;101428.13;4965966;28;96930;-75
2021/09/14 00:36:29;;;;;;;1999.90;999.90;;;;;;;13.14;51.02;101427.19;4983564;28;97083;-76
2021/09/14 00:38:59;;;;;;;1999.90;999.90;;;;;;;13.11;51.07;101428.03;4983283;28;97870;-75
2021/09/14 00:41:27;;;;;;;1999.90;999.90;;;;;;;13.08;51.03;101424.38;4992539;28;97898;-75
2021/09/14 00:43:57;;;;;;;1999.90;999.90;;;;;;;13.46;50.62;101420.72;4983464;28;97362;-75
2021/09/14 00:46:25;;;;;;;1999.90;999.90;;;;;;;13.21;51.10;101413.09;4977057;28;97530;-76
2021/09/14 00:48:54;;;;;;;1999.90;999.90;;;;;;;13.14;51.10;101419.19;4983188;28;98516;-76
2021/09/14 00:51:22;;;;;;;1999.90;999.90;;;;;;;13.09;51.20;101424.41;4962527;28;102112;-75
2021/09/14 00:53:50;;;;;;;1999.90;999.90;;;;;;;13.08;51.02;101429.72;4966466;28;96791;-75
2021/09/14 00:56:23;;;;;;;1999.90;999.90;;;;;;;13.06;51.09;101423.44;4983092;28;97292;-75
2021/09/14 00:58:52;;;;;;;1999.90;999.90;;;;;;;13.04;51.34;101425.19;4976764;28;99510;-75
2021/09/14 01:01:20;;;;;;;1999.90;999.90;;;;;;;13.01;51.28;101409.09;4983892;28;96991;-75
2021/09/14 01:03:48;;;;;;;1999.90;999.90;;;;;;;12.98;51.28;101409.00;4983413;28;97220;-75
2021/09/14 01:06:16;;;;;;;1999.90;999.90;;;;;;;12.96;51.30;101410.75;4967713;28;96994;-75
2021/09/14 01:08:45;;;;;;;1999.90;999.90;;;;;;;12.94;51.25;101415.16;4976114;28;100540;-76
2021/09/14 01:11:13;;;;;;;1999.90;999.90;;;;;;;12.91;51.21;101407.09;4980835;28;98033;-75
2021/09/14 01:13:43;;;;;;;1999.90;999.90;;;;;;;12.89;51.27;101411.50;4982591;28;97272;-75
2021/09/14 01:16:12;;;;;;;1999.90;999.90;;;;;;;12.85;51.16;101401.59;4966332;28;97339;-75
2021/09/14 01:18:42;;;;;;;1999.90;999.90;;;;;;;12.84;51.16;101397.09;4966437;28;99531;-75
2021/09/14 01:21:10;;;;;;;1999.90;999.90;;;;;;;12.83;51.30;101403.34;4992968;28;100712;-75
2021/09/14 01:23:39;;;;;;;1999.90;999.90;;;;;;;12.84;51.14;101399.78;4965333;28;96914;-76
2021/09/14 01:26:08;;;;;;;1999.90;999.90;;;;;;;12.82;51.22;101396.19;4976695;28;97043;-76
2021/09/14 01:28:36;;;;;;;1999.90;999.90;;;;;;;12.82;51.31;101405.09;4982097;28;98157;-75
2021/09/14 01:31:04;;;;;;;1999.90;999.90;;;;;;;12.83;51.28;101398.91;4967271;28;100768;-75
2021/09/14 01:33:32;;;;;;;1999.90;999.90;;;;;;;12.82;51.28;101396.19;4960992;28;97484;-75
2021/09/14 01:36:01;;;;;;;1999.90;999.90;;;;;;;12.81;51.19;101391.72;4982431;28;97787;-76
2021/09/14 01:38:30;;;;;;;1999.90;999.90;;;;;;;12.81;51.31;101405.97;4982341;28;99563;-76
2021/09/14 01:40:59;;;;;;;1999.90;999.90;;;;;;;12.81;51.18;101397.97;4983255;28;98364;-76
2021/09/14 01:43:27;;;;;;;1999.90;999.90;;;;;;;13.22;50.79;101401.53;4970294;28;97054;-76
2021/09/14 01:45:56;;;;;;;1999.90;999.90;;;;;;;13.02;51.25;101405.56;4975936;28;97005;-76
2021/09/14 01:48:27;;;;;;;1999.90;999.90;;;;;;;13.37;50.53;101398.28;4975243;28;98815;-75
2021/09/14 01:51:00;;;;;;;1999.90;999.90;;;;;;;13.11;51.26;101406.66;4959027;28;101007;-75
2021/09/14 01:53:31;;;;;;;1999.90;999.90;;;;;;;13.03;51.46;101418.97;4983290;28;96979;-75
2021/09/14 01:56:04;;;;;;;1999.90;999.90;;;;;;;12.98;51.49;101406.34;4972880;28;97006;-75
2021/09/14 01:58:38;;;;;;;1999.90;999.90;;;;;;;12.94;51.55;101413.38;4962137;28;99713;-75
2021/09/14 02:01:16;;;;;;;1999.90;999.90;;;;;;;12.94;51.43;101407.13;4981810;28;99194;-75
2021/09/14 02:03:53;;;;;;;1999.90;999.90;;;;;;;;;;4966148;28;96866;-75
2021/09/14 02:06:36;;;;;;;1999.90;999.90;;;;;;;12.90;51.53;101407.94;4967887;28;97532;-75
2021/09/14 02:23:38;;;;;;;1999.90;999.90;;;;;;;12.89;51.49;101407.03;4965322;28;100922;-75
2021/09/14 02:43:16;;;;;;;1999.90;999.90;;;;;;;12.78;51.43;101389.84;4965814;28;99149;-75
2021/09/14 02:58:37;;;;;;;1999.90;999.90;;;;;;;13.13;51.40;101390.63;4981478;28;97840;-75
2021/09/14 02:59:48;;;;;;;1999.90;999.90;;;;;;;13.30;51.39;101385.63;4966612;28;97274;-75
2021/09/14 03:02:18;;;;;;;1999.90;999.90;;;;;;;13.02;51.84;101392.22;4985712;28;96891;-75
2021/09/14 03:04:46;;;;;;;1999.90;999.90;;;;;;;12.92;52.00;101392.84;4984957;28;100817;-75
2021/09/14 03:07:15;;;;;;;1999.90;999.90;;;;;;;12.83;51.99;101390.88;4967175;28;102972;-75
2021/09/14 03:09:44;;;;;;;1999.90;999.90;;;;;;;12.79;52.08;101393.44;4984833;28;96941;-75
2021/09/14 03:12:12;;;;;;;1999.90;999.90;;;;;;;12.74;52.04;101387.09;4985034;28;96763;-75
2021/09/14 03:14:44;;;;;;;1999.90;999.90;;;;;;;12.71;52.11;101387.06;4961995;28;99710;-75
2021/09/14 03:17:13;;;;;;;1999.90;999.90;;;;;;;12.69;52.10;101388.78;4969352;28;97741;-76
2021/09/14 03:19:43;;;;;;;1999.90;999.90;;;;;;;13.07;51.78;101380.75;4967978;28;96919;-75
2021/09/14 03:22:11;;;;;;;1999.90;999.90;;;;;;;12.81;52.34;101379.25;4968423;28;96886;-75
2021/09/14 03:24:40;;;;;;;1999.90;999.90;;;;;;;13.15;51.88;101370.19;4967415;28;99847;-75
2021/09/14 03:27:09;;;;;;;1999.90;999.90;;;;;;;12.87;52.34;101378.50;4984687;28;96981;-75
2021/09/14 03:29:37;;;;;;;1999.90;999.90;;;;;;;12.78;52.36;101365.81;4985719;28;96853;-76
2021/09/14 03:32:06;;;;;;;1999.90;999.90;;;;;;;12.74;52.52;101376.41;4983818;28;96729;-76
2021/09/14 03:34:34;;;;;;;1999.90;999.90;;;;;;;12.68;52.59;101365.59;4985886;28;98277;-76
2021/09/14 03:37:05;;;;;;;1999.90;999.90;;;;;;;12.66;52.44;101367.34;4985937;28;99526;-75
2021/09/14 03:39:37;;;;;;;1999.90;999.90;;;;;;;12.63;52.57;101364.59;4969379;28;96977;-76
2021/09/14 03:42:12;;;;;;;1999.90;999.90;;;;;;;12.58;52.64;101359.19;4965704;28;97290;-76
2021/09/14 03:44:40;;;;;;;1999.90;999.90;;;;;;;12.57;52.58;101367.13;4985571;28;100499;-76
2021/09/14 03:47:10;;;;;;;1999.90;999.90;;;;;;;12.54;52.56;101359.06;4964574;28;100030;-76
2021/09/14 03:49:40;;;;;;;1999.90;999.90;;;;;;;12.52;52.67;101353.69;4962550;28;97186;-76
2021/09/14 03:52:10;;;;;;;1999.90;999.90;;;;;;;12.51;52.62;101364.34;4961584;28;96828;-76
2021/09/14 03:54:38;;;;;;;1999.90;999.90;;;;;;;12.91;52.28;101359.88;4967844;28;98627;-76
2021/09/14 03:57:06;;;;;;;1999.90;999.90;;;;;;;13.06;52.10;101344.19;4957904;28;99477;-76
2021/09/14 03:59:39;;;;;;;1999.90;999.90;;;;;;;13.15;52.09;101346.13;4968696;28;97199;-76
2021/09/14 04:02:14;;;;;;;1999.90;999.90;;;;;;;12.81;52.70;101346.31;4966890;28;97528;-76
2021/09/14 04:04:52;;;;;;;1999.90;999.90;;;;;;;12.69;52.88;101346.06;4958088;28;98902;-76
2021/09/14 04:07:25;;;;;;;1999.90;999.90;;;;;;;12.63;52.89;101346.81;4960845;28;96874;-77
2021/09/14 04:09:54;;;;;;;1999.90;999.90;;;;;;;12.56;52.88;101350.22;4971344;28;97421;-78
2021/09/14 04:12:25;;;;;;;1999.90;999.90;;;;;;;12.51;52.98;101346.53;4977396;28;97594;-76
2021/09/14 04:14:53;;;;;;;1999.90;999.90;;;;;;;12.49;53.03;101347.41;4970218;28;100222;-76
2021/09/14 04:17:25;;;;;;;1999.90;999.90;;;;;;;12.43;52.93;101348.16;4983938;28;97530;-77
2021/09/14 04:19:56;;;;;;;1999.90;999.90;;;;;;;12.40;52.84;101348.06;4997976;28;97207;-77
2021/09/14 04:22:29;;;;;;;1999.90;999.90;;;;;;;12.35;53.08;101348.81;4987135;28;97111;-77
2021/09/14 04:25:07;;;;;;;1999.90;999.90;;;;;;;12.30;52.97;101345.16;4984149;28;97062;-77
2021/09/14 04:27:35;;;;;;;1999.90;999.90;;;;;;;12.26;52.86;101338.84;4965298;28;100378;-77
2021/09/14 04:30:08;;;;;;;1999.90;999.90;;;;;;;12.21;53.21;101334.28;4969486;28;96910;-77
2021/09/14 04:32:37;;;;;;;1999.90;999.90;;;;;;;12.19;53.10;101326.25;4987026;28;96890;-78
2021/09/14 04:35:10;;;;;;;1999.90;999.90;;;;;;;12.15;53.32;101330.56;4979635;28;97037;-76
2021/09/14 04:37:40;;;;;;;1999.90;999.90;;;;;;;12.14;53.23;101330.53;4968852;28;99641;-78
2021/09/14 04:40:09;;;;;;;1999.90;999.90;;;;;;;12.10;53.19;101334.91;4968466;28;97188;-77
2021/09/14 04:42:39;;;;;;;1999.90;999.90;;;;;;;12.08;53.24;101338.38;5002931;28;96936;-77
2021/09/14 04:45:09;;;;;;;1999.90;999.90;;;;;;;12.05;53.05;101343.66;4966823;28;97814;-77
2021/09/14 04:47:41;;;;;;;1999.90;999.90;;;;;;;12.03;53.30;101345.38;4993407;28;99151;-77
2021/09/14 04:50:13;;;;;;;1999.90;999.90;;;;;;;12.01;53.34;101352.44;4964783;28;97284;-77
2021/09/14 04:52:48;;;;;;;1999.90;999.90;;;;;;;11.98;53.37;101353.25;4980390;28;96924;-77
2021/09/14 04:55:18;;;;;;;1999.90;999.90;;;;;;;11.95;53.22;101346.94;4952218;28;99852;-77
2021/09/14 04:57:49;;;;;;;1999.90;999.90;;;;;;;12.36;52.75;101343.56;4983171;28;98113;-77
2021/09/14 05:00:38;;;;;;;1999.90;999.90;;;;;;;12.10;53.27;101340.25;4984927;28;96951;-76
2021/09/14 05:03:24;;;;;;;1999.90;999.90;;;;;;;12.01;53.52;101341.78;4969205;28;97298;-76
2021/09/14 05:05:53;;;;;;;1999.90;999.90;;;;;;;11.95;53.47;101342.53;4968715;28;99765;-76
2021/09/14 05:08:25;;;;;;;1999.90;999.90;;;;;;;11.93;53.63;101346.00;4983019;28;97853;-76
2021/09/14 05:10:55;;;;;;;1999.90;999.90;;;;;;;11.92;53.54;101341.56;4990165;28;96916;-76
2021/09/14 05:13:24;;;;;;;1999.90;999.90;;;;;;;11.89;53.66;101342.38;5000377;28;97005;-76
2021/09/14 05:15:53;;;;;;;1999.90;999.90;;;;;;;11.88;53.50;101345.91;4985511;28;99793;-76
2021/09/14 05:18:37;;;;;;;1999.90;999.90;;;;;;;11.86;53.54;101344.97;4962832;28;99747;-76
2021/09/14 05:21:06;;;;;;;1999.90;999.90;;;;;;;11.82;53.65;101343.09;4985534;28;97046;-77
2021/09/14 05:23:35;;;;;;;1999.90;999.90;;;;;;;11.82;53.72;101344.84;4991984;28;96974;-75
2021/09/14 05:26:06;;;;;;;1999.90;999.90;;;;;;;11.81;53.75;101348.38;4987545;28;99240;-77
2021/09/14 05:28:37;;;;;;;1999.90;999.90;;;;;;;11.80;53.72;101344.81;4959936;28;97754;-76
2021/09/14 05:31:07;;;;;;;1999.90;999.90;;;;;;;11.80;53.62;101346.56;4984772;28;97277;-77
2021/09/14 05:33:39;;;;;;;1999.90;999.90;;;;;;;11.79;53.81;101345.69;4965414;28;96885;-76
2021/09/14 05:36:08;;;;;;;1999.90;999.90;;;;;;;11.80;53.66;101338.56;4984334;28;97824;-77
2021/09/14 05:38:41;;;;;;;1999.90;999.90;;;;;;;12.21;53.31;101343.19;4958557;28;99045;-77
2021/09/14 05:41:09;;;;;;;1999.90;999.90;;;;;;;11.99;53.74;101354.19;4973781;28;96875;-78
2021/09/14 05:43:37;;;;;;;1999.90;999.90;;;;;;;11.91;54.05;101351.31;4964048;28;96948;-76
2021/09/14 05:46:05;;;;;;;1999.90;999.90;;;;;;;12.33;53.36;101345.25;4970548;28;98053;-77
2021/09/14 05:48:36;;;;;;;1999.90;999.90;;;;;;;12.47;53.15;101344.69;4979167;28;96856;-76
2021/09/14 05:51:06;;;;;;;1999.90;999.90;;;;;;;12.17;53.73;101347.56;4982883;28;97087;-77
2021/09/14 05:53:46;;;;;;;1999.90;999.90;;;;;;;12.04;54.05;101358.75;4981921;28;96877;-76
2021/09/14 05:56:14;;;;;;;1999.90;999.90;;;;;;;12.41;53.42;101355.22;4961840;28;98390;-76
2021/09/14 05:58:42;;;;;;;1999.90;999.90;;;;;;;12.16;53.84;101360.84;4980193;28;98092;-77
2021/09/14 06:01:13;;;;;;;1999.90;999.90;;;;;;;12.07;54.05;101356.16;4961292;28;97132;-76
2021/09/14 06:03:43;;;;;;;1999.90;999.90;;;;;;;12.03;53.99;101358.72;4963648;28;96921;-76
2021/09/14 06:06:11;;;;;;;1999.90;999.90;;;;;;;11.99;54.02;101360.41;4980246;28;97865;-75
2021/09/14 06:08:40;;;;;;;1999.90;999.90;;;;;;;11.99;54.01;101364.84;4958462;28;99378;-76
2021/09/14 06:11:10;;;;;;;1999.90;999.90;;;;;;;11.96;54.00;101359.44;4972988;28;97260;-77
2021/09/14 06:13:38;;;;;;;1999.90;999.90;;;;;;;11.96;53.99;101360.31;4964569;28;97255;-76
2021/09/14 06:16:06;;;;;;;1999.90;999.90;;;;;;;11.97;53.97;101362.16;4979134;28;97333;-77
2021/09/14 06:18:36;;;;;;;1999.90;999.90;;;;;;;11.97;54.11;101362.16;4967375;28;99022;-77
2021/09/14 06:21:06;;;;;;;1999.90;999.90;;;;;;;11.96;53.97;101363.00;4983305;28;96829;-77
2021/09/14 06:23:36;;;;;;;1999.90;999.90;;;;;;;11.99;53.90;101363.09;4988740;28;97164;-77
2021/09/14 06:26:10;;;;;;;1999.90;999.90;;;;;;;12.41;53.42;101365.00;4979438;28;99270;-75
2021/09/14 06:28:39;;;;;;;1999.90;999.90;;;;;;;12.61;53.24;101355.66;4981721;28;99350;-75
2021/09/14 06:31:08;;;;;;;1999.90;999.90;;;;;;;12.33;53.91;101356.81;4977268;28;97249;-76
2021/09/14 06:33:36;;;;;;;1999.90;999.90;;;;;;;12.28;54.10;101352.22;4979574;28;97517;-77
2021/09/14 06:36:04;;;;;;;1999.90;999.90;;;;;;;12.24;54.12;101353.91;4993276;28;97033;-77
2021/09/14 06:38:34;;;;;;;1999.90;999.90;;;;;;;12.25;54.04;101357.50;4977692;28;103136;-76
2021/09/14 06:41:03;;;;;;;1999.90;999.90;;;;;;;12.27;53.95;101355.78;4958783;28;97046;-76
2021/09/14 06:43:37;;;;;;;1999.90;999.90;;;;;;;12.31;53.95;101352.31;4981344;28;97899;-76
2021/09/14 06:46:16;;;;;;;1999.90;999.90;;;;;;;12.32;53.83;101355.00;4984223;28;97633;-76
2021/09/14 06:48:50;;;;;;;1999.90;999.90;;;;;;;12.36;53.72;101347.97;4978665;28;98689;-76
2021/09/14 06:51:19;;;;;;;1999.90;999.90;;;;;;;12.37;53.65;101352.44;4990275;28;97031;-75
2021/09/14 06:53:47;;;;;;;1999.90;999.90;;;;;;;12.38;53.61;101355.16;4966024;28;97399;-76
2021/09/14 06:56:15;;;;;;;1999.90;999.90;;;;;;;12.40;53.71;101350.72;4980536;28;96989;-75
2021/09/14 06:58:46;;;;;;;1999.90;999.90;;;;;;;12.42;53.63;101361.47;4979455;28;98609;-75
2021/09/14 07:01:18;;;;;;;1999.90;999.90;;;;;;;12.46;53.74;101352.63;4963815;28;97009;-76
2021/09/14 07:03:46;;;;;;;1999.90;999.90;;;;;;;12.48;53.31;101348.25;4963953;28;96920;-76
2021/09/14 07:06:14;;;;;;;1999.90;999.90;;;;;;;12.50;53.33;101350.09;4981620;28;97731;-76
2021/09/14 07:08:42;;;;;;;1999.90;999.90;;;;;;;12.53;53.34;101354.59;4980288;28;99667;-77
2021/09/14 07:11:10;;;;;;;1999.90;999.90;;;;;;;12.56;53.25;101350.22;4968196;28;96899;-76
2021/09/14 07:13:38;;;;;;;1999.90;999.90;;;;;;;12.59;53.14;101350.28;4997853;28;96798;-76
2021/09/14 07:16:08;;;;;;;1999.90;999.90;;;;;;;12.64;53.06;101353.03;4981715;28;100084;-75
2021/09/14 07:18:38;;;;;;;1999.90;999.90;;;;;;;12.67;53.10;101354.03;4983145;28;96869;-77
2021/09/14 07:21:06;;;;;;;1999.90;999.90;;;;;;;12.71;53.09;101344.31;4983013;28;96878;-77
2021/09/14 07:23:35;;;;;;;1999.90;999.90;;;;;;;12.74;53.08;101336.38;4962118;28;96849;-76
2021/09/14 07:26:03;;;;;;;1999.90;999.90;;;;;;;12.76;53.07;101342.66;4979409;28;96749;-77
2021/09/14 07:28:31;;;;;;;1999.90;999.90;;;;;;;12.79;52.97;101340.94;4983498;28;98831;-76
2021/09/14 07:31:03;;;;;;;1999.90;999.90;;;;;;;12.82;52.89;101335.66;4976190;28;96900;-76
2021/09/14 07:33:32;;;;;;;1999.90;999.90;;;;;;;12.88;52.90;101338.47;4980868;28;96863;-77
2021/09/14 07:36:00;;;;;;;1999.90;999.90;;;;;;;12.91;52.80;101338.50;5001079;28;97742;-76
2021/09/14 07:38:29;;;;;;;1999.90;999.90;;;;;;;12.96;52.86;101338.63;4968076;28;98668;-76
2021/09/14 07:40:57;;;;;;;1999.90;999.90;;;;;;;13.00;52.74;101333.38;4962742;28;96970;-76
2021/09/14 07:43:25;;;;;;;1999.90;999.90;;;;;;;13.03;52.71;101337.91;4992400;28;97017;-76
2021/09/14 07:45:53;;;;;;;1999.90;999.90;;;;;;;13.06;52.61;101332.59;4994312;28;97887;-75
2021/09/14 07:48:21;;;;;;;1999.90;999.90;;;;;;;13.10;52.78;101339.81;4981596;28;96848;-76
2021/09/14 07:50:51;;;;;;;1999.90;999.90;;;;;;;13.14;52.43;101339.91;4969186;28;96915;-76
2021/09/14 07:53:19;;;;;;;1999.90;999.90;;;;;;;13.18;52.46;101341.75;4983694;28;97369;-77
2021/09/14 07:55:47;;;;;;;1999.90;999.90;;;;;;;13.22;52.43;101334.72;4980789;28;97641;-76
2021/09/14 07:58:14;;;;;;;1999.90;999.90;;;;;;;13.28;52.27;101334.81;4966672;28;98861;-76
2021/09/14 08:00:42;;;;;;;1999.90;999.90;;;;;;;13.33;52.33;101340.28;4984114;28;96953;-76
2021/09/14 08:03:11;;;;;;;1999.90;999.90;;;;;;;13.37;52.25;101342.13;4963513;28;96998;-76
2021/09/14 08:05:40;;;;;;;1999.90;999.90;;;;;;;13.41;52.13;101336.84;4965039;28;97189;-76
2021/09/14 08:08:09;;;;;;;1999.90;999.90;;;;;;;13.46;51.97;101326.25;4967281;28;98854;-76
2021/09/14 08:10:37;;;;;;;1999.90;999.90;;;;;;;13.50;51.98;101331.66;4982947;28;97354;-77
2021/09/14 08:13:06;;;;;;;1999.90;999.90;;;;;;;13.54;51.94;101324.59;4984059;28;97129;-76
2021/09/14 08:15:34;;;;;;;1999.90;999.90;;;;;;;13.58;51.94;101327.38;5000079;28;97792;-77
2021/09/14 08:18:02;;;;;;;1999.90;999.90;;;;;;;13.63;52.08;101322.09;4991915;28;97041;-77
2021/09/14 08:20:30;;;;;;;1999.90;999.90;;;;;;;13.65;51.98;101323.00;4984615;28;96905;-77
2021/09/14 08:22:58;;;;;;;1999.90;999.90;;;;;;;13.69;51.77;101325.78;4968789;28;96890;-76
2021/09/14 08:25:27;;;;;;;1999.90;999.90;;;;;;;13.72;51.70;101323.16;4966393;28;101349;-77
2021/09/14 08:27:57;;;;;;;1999.90;999.90;;;;;;;13.78;51.79;101331.28;4985111;28;97591;-76
2021/09/14 08:30:25;;;;;;;1999.90;999.90;;;;;;;13.82;51.75;101330.47;4967678;28;96834;-76
2021/09/14 08:32:53;;;;;;;1999.90;999.90;;;;;;;13.84;51.67;101333.19;4982705;28;97564;-76
2021/09/14 08:35:22;;;;;;;1999.90;999.90;;;;;;;13.91;51.46;101340.44;4967304;28;99229;-76
2021/09/14 08:37:50;;;;;;;1999.90;999.90;;;;;;;13.94;51.56;101337.81;4981823;28;101050;-76
2021/09/14 08:40:18;;;;;;;1999.90;999.90;;;;;;;14.00;51.41;101335.25;4959515;28;96954;-75
2021/09/14 08:42:48;;;;;;;1999.90;999.90;;;;;;;14.32;51.24;101343.75;4981422;28;96831;-77
2021/09/14 08:45:16;;;;;;;1999.90;999.90;;;;;;;14.49;51.11;101340.44;4976623;28;98881;-77
2021/09/14 08:47:45;;;;;;;1999.90;999.90;;;;;;;14.64;50.70;101340.69;4981846;28;99541;-76
2021/09/14 08:50:13;;;;;;;1999.90;999.90;;;;;;;14.77;50.00;101350.66;4981444;28;97423;-76
2021/09/14 08:52:41;;;;;;;1999.90;999.90;;;;;;;14.87;50.11;101346.34;4983074;28;97313;-76
2021/09/14 08:55:10;;;;;;;1999.90;999.90;;;;;;;14.96;49.85;101347.34;4966381;28;99058;-77
2021/09/14 08:57:38;;;;;;;1999.90;999.90;;;;;;;14.80;50.49;101336.44;4959041;28;100483;-76
2021/09/14 09:00:09;;;;;;;1999.90;999.90;;;;;;;15.02;50.13;101339.41;4958926;28;96962;-76
2021/09/14 09:02:37;;;;;;;1999.90;999.90;;;;;;;15.14;49.68;101333.25;4981519;28;96833;-76
2021/09/14 09:05:06;;;;;;;1999.90;999.90;;;;;;;15.25;49.82;101336.09;4983322;28;100885;-76
2021/09/14 09:07:35;;;;;;;1999.90;999.90;;;;;;;15.34;49.59;101337.09;4983622;28;97359;-76
2021/09/14 09:10:11;;;;;;;1999.90;999.90;;;;;;;15.42;49.19;101327.34;4966602;28;96999;-77
2021/09/14 09:12:42;;;;;;;1999.90;999.90;;;;;;;15.52;49.03;101328.34;4982996;28;97142;-77
2021/09/14 09:15:22;;;;;;;1999.90;999.90;;;;;;;15.60;49.07;101330.22;4961062;28;98777;-77
2021/09/14 09:18:01;;;;;;;1999.90;999.90;;;;;;;15.70;48.87;101325.81;4972161;28;99435;-76
2021/09/14 09:20:29;;;;;;;1999.90;999.90;;;;;;;15.76;48.94;101318.72;4986149;28;97763;-76
2021/09/14 09:22:59;;;;;;;1999.90;999.90;;;;;;;15.82;48.97;101318.78;4976630;28;97148;-76
2021/09/14 09:25:30;;;;;;;1999.90;999.90;;;;;;;15.89;48.57;101312.56;4995399;28;98663;-78
2021/09/14 09:28:07;;;;;;;1999.90;999.90;;;;;;;15.96;48.58;101308.13;4965891;28;101424;-76
2021/09/14 09:30:37;;;;;;;1999.90;999.90;;;;;;;16.02;48.47;101308.22;4969301;28;97034;-75
2021/09/14 09:33:09;;;;;;;1999.90;999.90;;;;;;;16.13;47.99;101313.66;4980346;28;97904;-78
2021/09/14 09:35:52;;;;;;;1999.90;999.90;;;;;;;16.15;48.11;101303.81;4983735;28;99006;-77
2021/09/14 09:38:20;;;;;;;1999.90;999.90;;;;;;;16.24;47.67;101311.94;4972559;28;99195;-76
2021/09/14 09:40:48;;;;;;;1999.90;999.90;;;;;;;16.29;47.53;101308.41;4965697;28;97013;-76
2021/09/14 09:43:29;;;;;;;1999.90;999.90;;;;;;;16.35;47.45;101315.59;4980160;28;96912;-76
2021/09/14 09:46:07;;;;;;;1999.90;999.90;;;;;;;16.39;47.52;101306.66;4985297;28;97874;-76
2021/09/14 09:48:36;;;;;;;1999.90;999.90;;;;;;;16.44;47.28;101313.88;4985003;28;98037;-75
2021/09/14 09:51:04;;;;;;;1999.90;999.90;;;;;;;16.52;47.30;101308.53;4983511;28;96008;-77
2021/09/14 09:53:34;;;;;;;1999.90;999.90;;;;;;;16.56;47.06;101313.91;4957933;28;97460;-77
2021/09/14 09:56:02;;;;;;;1999.90;999.90;;;;;;;16.63;46.99;101304.13;4982677;28;100510;-76
2021/09/14 09:58:31;;;;;;;1999.90;999.90;;;;;;;16.68;47.14;101299.66;4990677;28;99403;-76
2021/09/14 10:01:02;;;;;;;1999.90;999.90;;;;;;;16.74;46.85;101299.72;4977897;28;97437;-76
2021/09/14 10:03:35;;;;;;;1999.90;999.90;;;;;;;16.80;46.83;101306.00;4979966;28;97086;-75
2021/09/14 10:06:08;;;;;;;1999.90;999.90;;;;;;;16.84;46.51;101298.84;4954485;28;97087;-76
2021/09/14 10:08:37;;;;;;;1999.90;999.90;;;;;;;16.89;46.36;101302.44;4973184;28;99006;-75
2021/09/14 10:11:05;;;;;;;1999.90;999.90;;;;;;;16.93;46.22;101296.19;4965904;28;96879;-77
2021/09/14 10:13:34;;;;;;;1999.90;999.90;;;;;;;16.98;45.70;101287.25;4962052;28;96154;-75
2021/09/14 10:16:03;;;;;;;1999.90;999.90;;;;;;;17.04;45.68;101287.28;4974433;28;97711;-77
2021/09/14 10:18:34;;;;;;;1999.90;999.90;;;;;;;17.10;45.22;101286.38;4996810;28;99986;-75
2021/09/14 10:21:05;;;;;;;1999.90;999.90;;;;;;;17.15;44.91;101271.16;4994877;28;97186;-75
2021/09/14 10:23:35;;;;;;;1999.90;999.90;;;;;;;17.21;44.81;101275.66;4977708;28;97175;-77
2021/09/14 10:26:05;;;;;;;1999.90;999.90;;;;;;;17.24;44.65;101276.56;4991291;28;99613;-78
2021/09/14 10:28:44;;;;;;;1999.90;999.90;;;;;;;17.28;44.18;101270.28;4976815;28;99718;-75
2021/09/14 10:31:21;;;;;;;1999.90;999.90;;;;;;;17.30;43.61;101264.91;4977690;28;97500;-75
2021/09/14 10:34:03;;;;;;;1999.90;999.90;;;;;;;17.35;43.36;101268.47;4975087;28;96879;-76
2021/09/14 10:36:32;;;;;;;1999.90;999.90;;;;;;;17.38;43.22;101269.44;4985106;28;100653;-75
2021/09/14 10:39:01;;;;;;;1999.90;999.90;;;;;;;17.42;42.84;101271.22;4978868;28;99153;-78
2021/09/14 10:41:37;;;;;;;1999.90;999.90;;;;;;;17.45;42.45;101270.34;4960339;28;97221;-76
2021/09/14 10:44:07;;;;;;;1999.90;999.90;;;;;;;17.50;42.48;101261.38;4981928;28;97398;-76
2021/09/14 10:46:36;;;;;;;1999.90;999.90;;;;;;;17.53;42.45;101264.06;4980212;28;97833;-75
2021/09/14 10:49:17;;;;;;;1999.90;999.90;;;;;;;17.57;42.21;101255.09;4986723;28;98005;-74
2021/09/14 10:51:54;;;;;;;1999.90;999.90;;;;;;;17.60;42.10;101257.75;4976489;28;97441;-77
2021/09/14 10:54:22;;;;;;;1999.90;999.90;;;;;;;17.49;42.59;101256.88;4986259;28;96920;-75
2021/09/14 10:56:52;;;;;;;1999.90;999.90;;;;;;;17.65;41.99;101253.31;4975716;28;98576;-77
2021/09/14 10:59:20;;;;;;;1999.90;999.90;;;;;;;17.54;42.66;101251.50;4972149;28;99390;-77
2021/09/14 11:01:49;;;;;;;1999.90;999.90;;;;;;;17.51;42.89;101243.44;4957234;28;96867;-76
2021/09/14 11:04:27;;;;;;;1999.90;999.90;;;;;;;17.47;42.72;101244.34;4965244;28;96966;-76
2021/09/14 11:06:55;;;;;;;1999.90;999.90;;;;;;;17.44;43.30;101249.69;4975586;28;98759;-76
2021/09/14 11:09:25;;;;;;;1999.90;999.90;;;;;;;17.45;43.14;101244.34;4978846;28;100917;-76
2021/09/14 11:11:55;;;;;;;1999.90;999.90;;;;;;;17.45;43.27;101238.06;4963577;28;96839;-76
2021/09/14 11:14:34;;;;;;;1999.90;999.90;;;;;;;17.46;42.77;101243.44;4975835;28;96857;-77
2021/09/14 11:17:02;;;;;;;1999.90;999.90;;;;;;;17.51;43.23;101240.75;4955732;28;99620;-77
2021/09/14 11:19:32;;;;;;;1999.90;999.90;;;;;;;17.53;43.30;101239.84;4978708;28;97530;-76
2021/09/14 11:22:00;;;;;;;1999.90;999.90;;;;;;;17.53;43.41;101242.53;4969580;28;97146;-76
2021/09/14 11:24:28;;;;;;;1999.90;999.90;;;;;;;17.57;43.50;101233.56;4980677;28;96870;-77
2021/09/14 11:26:56;;;;;;;1999.90;999.90;;;;;;;17.62;43.31;101230.88;4964813;28;99360;-76
2021/09/14 11:29:24;;;;;;;1999.90;999.90;;;;;;;17.66;43.22;101228.16;4980534;28;97974;-74
2021/09/14 11:31:52;;;;;;;1999.90;999.90;;;;;;;17.71;43.16;101234.44;4971545;28;97014;-76
2021/09/14 11:34:22;;;;;;;1999.90;999.90;;;;;;;17.77;43.00;101229.06;4963403;28;96382;-77
2021/09/14 11:36:52;;;;;;;1999.90;999.90;;;;;;;17.79;43.22;101221.88;4965713;28;99874;-77
2021/09/14 11:39:20;;;;;;;1999.90;999.90;;;;;;;17.83;42.90;101225.47;4981981;28;96848;-76
2021/09/14 11:41:48;;;;;;;1999.90;999.90;;;;;;;17.85;43.04;101221.88;4990705;28;97315;-77
2021/09/14 11:44:25;;;;;;;1999.90;999.90;;;;;;;17.94;42.33;101215.56;4977917;28;97140;-76